Time;durP1;ratioP1;P1;durP2;ratioP2;P2;SDS_P1;SDS_P2;PMS_P1;PMS_P2;Temp;Humidity;BMP_temperature;BMP_pressure;BME280_temperature;BME280_humidity;BME280_pressure;Samples;Min_cycle;Max_cycle;Signal;HPM_P1;HPM_P2
2021/05/28 00:01:56;;;;;;;11.50;8.82;;;10.40;99.90;;;;;;5074947;28;20039;-71
2021/05/28 00:04:22;;;;;;;12.95;8.15;;;10.40;99.90;;;;;;5073502;28;20365;-70
2021/05/28 00:06:50;;;;;;;11.68;7.55;;;10.40;99.90;;;;;;5073905;28;20031;-70
2021/05/28 00:09:15;;;;;;;10.63;7.47;;;10.30;99.90;;;;;;5068785;28;20032;-70
2021/05/28 00:11:43;;;;;;;13.90;7.88;;;10.40;99.90;;;;;;5066890;28;20028;-70
2021/05/28 00:14:09;;;;;;;11.32;8.18;;;10.40;99.90;;;;;;5067094;28;20024;-71
2021/05/28 00:16:37;;;;;;;13.15;7.35;;;10.30;99.90;;;;;;5066373;28;20040;-70
2021/05/28 00:19:03;;;;;;;12.65;7.60;;;10.40;99.90;;;;;;5055802;28;20567;-70
2021/05/28 00:21:29;;;;;;;10.27;6.28;;;10.40;99.90;;;;;;5066270;28;20036;-70
2021/05/28 00:23:55;;;;;;;13.63;7.45;;;10.40;99.90;;;;;;5069153;28;20048;-70
2021/05/28 00:26:20;;;;;;;9.98;6.15;;;10.40;99.90;;;;;;5077400;28;20035;-70
2021/05/28 00:28:51;;;;;;;8.85;6.50;;;10.40;99.90;;;;;;5080070;28;20067;-70
2021/05/28 00:31:18;;;;;;;12.93;7.75;;;10.40;99.90;;;;;;5077589;28;20029;-70
2021/05/28 00:33:43;;;;;;;11.07;6.70;;;10.50;99.90;;;;;;5077846;28;20032;-70
2021/05/28 00:36:09;;;;;;;10.50;7.22;;;10.50;99.90;;;;;;5078517;28;20081;-70
2021/05/28 00:38:34;;;;;;;9.43;6.85;;;10.50;99.90;;;;;;5068095;28;20259;-70
2021/05/28 00:41:00;;;;;;;10.07;6.38;;;10.50;99.90;;;;;;5069825;28;20361;-70
2021/05/28 00:43:26;;;;;;;10.20;6.65;;;10.50;99.90;;;;;;5075998;28;20028;-70
2021/05/28 00:45:53;;;;;;;14.27;9.73;;;10.50;99.90;;;;;;5063548;28;20031;-70
2021/05/28 00:48:24;;;;;;;12.63;8.30;;;10.50;99.90;;;;;;5073165;28;20032;-70
2021/05/28 00:50:52;;;;;;;13.60;9.05;;;10.50;99.90;;;;;;5070784;28;20050;-71
2021/05/28 00:53:20;;;;;;;10.00;8.30;;;10.50;99.90;;;;;;5069157;28;20036;-70
2021/05/28 00:55:47;;;;;;;11.32;8.10;;;10.50;99.90;;;;;;5071820;28;20461;-71
2021/05/28 00:58:13;;;;;;;10.05;7.10;;;10.50;99.90;;;;;;5060608;28;20032;-70
2021/05/28 01:00:41;;;;;;;13.27;8.98;;;10.50;99.90;;;;;;5071595;28;20443;-70
2021/05/28 01:03:11;;;;;;;11.40;7.65;;;10.50;99.90;;;;;;5071387;28;20024;-70
2021/05/28 01:05:39;;;;;;;12.40;8.73;;;10.50;99.90;;;;;;5071689;28;20036;-70
2021/05/28 01:08:04;;;;;;;15.80;8.63;;;10.40;99.90;;;;;;5057992;28;20119;-70
2021/05/28 01:10:30;;;;;;;14.57;8.45;;;10.40;99.90;;;;;;5069892;28;20361;-70
2021/05/28 01:13:08;;;;;;;12.52;8.65;;;10.50;99.90;;;;;;5076240;28;20020;-70
2021/05/28 01:15:34;;;;;;;10.98;8.38;;;10.50;99.90;;;;;;5083222;28;20068;-70
2021/05/28 01:18:00;;;;;;;10.65;7.65;;;10.50;99.90;;;;;;5076292;28;20028;-70
2021/05/28 01:20:25;;;;;;;10.32;7.50;;;10.50;99.90;;;;;;5076858;28;20021;-70
2021/05/28 01:22:53;;;;;;;12.85;8.07;;;10.50;99.90;;;;;;5065170;28;20501;-70
2021/05/28 01:25:20;;;;;;;12.98;9.27;;;10.50;99.90;;;;;;5056799;28;20481;-71
2021/05/28 01:27:47;;;;;;;13.60;9.82;;;10.50;99.90;;;;;;5083976;28;20061;-70
2021/05/28 01:30:14;;;;;;;11.27;8.35;;;10.50;99.90;;;;;;5058799;28;20457;-70
2021/05/28 01:32:42;;;;;;;13.98;8.77;;;10.50;99.90;;;;;;5069921;28;20464;-71
2021/05/28 01:35:12;;;;;;;11.95;9.10;;;10.50;99.90;;;;;;5070753;28;20121;-70
2021/05/28 01:37:38;;;;;;;11.38;9.20;;;10.40;99.90;;;;;;5054446;28;20024;-70
2021/05/28 01:40:06;;;;;;;15.32;10.25;;;10.50;99.90;;;;;;5067569;28;20480;-70
2021/05/28 01:42:32;;;;;;;15.32;10.55;;;10.50;99.90;;;;;;5070577;28;20052;-70
2021/05/28 01:45:02;;;;;;;13.38;10.30;;;10.50;99.90;;;;;;5068363;28;20058;-70
2021/05/28 01:47:27;;;;;;;12.70;9.43;;;10.50;99.90;;;;;;5071407;28;20088;-70
2021/05/28 01:49:55;;;;;;;13.52;8.77;;;10.50;99.90;;;;;;5076072;28;20036;-70
2021/05/28 01:52:25;;;;;;;13.73;9.15;;;10.50;99.90;;;;;;5075650;28;20704;-70
2021/05/28 01:54:50;;;;;;;14.55;10.20;;;10.50;99.90;;;;;;5071587;28;20056;-72
2021/05/28 01:57:16;;;;;;;12.85;9.55;;;10.50;99.90;;;;;;5059840;28;20044;-72
2021/05/28 01:59:42;;;;;;;14.98;9.63;;;10.30;99.90;;;;;;5074671;28;20057;-71
2021/05/28 02:02:10;;;;;;;11.75;9.55;;;10.30;99.90;;;;;;5072106;28;20082;-72
2021/05/28 02:04:36;;;;;;;14.13;9.45;;;10.30;99.90;;;;;;5071116;28;20614;-70
2021/05/28 02:07:04;;;;;;;10.45;8.55;;;10.30;99.90;;;;;;5069918;28;20044;-70
2021/05/28 02:09:32;;;;;;;11.77;7.95;;;10.30;99.90;;;;;;5074159;28;20040;-70
2021/05/28 02:11:58;;;;;;;11.85;8.13;;;10.40;99.90;;;;;;5069128;28;20032;-70
2021/05/28 02:14:27;;;;;;;9.52;7.03;;;10.40;99.90;;;;;;5070352;28;20028;-70
2021/05/28 02:16:55;;;;;;;10.32;7.07;;;10.50;99.90;;;;;;5070897;28;20466;-70
2021/05/28 02:19:23;;;;;;;17.75;6.90;;;10.50;99.90;;;;;;5068167;28;20119;-71
2021/05/28 02:21:51;;;;;;;9.95;7.13;;;10.50;99.90;;;;;;5067421;28;20039;-70
2021/05/28 02:24:17;;;;;;;8.40;6.65;;;10.50;99.90;;;;;;5067784;28;20396;-70
2021/05/28 02:26:47;;;;;;;9.63;7.63;;;10.60;99.90;;;;;;5069515;28;20039;-70
2021/05/28 02:29:13;;;;;;;11.60;6.72;;;10.60;99.90;;;;;;5069630;28;20691;-70
2021/05/28 02:31:39;;;;;;;9.25;6.50;;;10.60;99.90;;;;;;5072672;28;20046;-70
2021/05/28 02:34:05;;;;;;;12.20;7.07;;;10.60;99.90;;;;;;5076323;28;20115;-70
2021/05/28 02:36:33;;;;;;;10.10;6.85;;;10.70;99.90;;;;;;5075303;28;20064;-70
2021/05/28 02:39:01;;;;;;;9.55;6.30;;;10.70;99.90;;;;;;5076192;28;20024;-70
2021/05/28 02:41:26;;;;;;;9.57;6.95;;;10.60;99.90;;;;;;5073737;28;20020;-70
2021/05/28 02:43:52;;;;;;;12.85;6.55;;;10.60;99.90;;;;;;5077824;28;20419;-70
2021/05/28 02:46:22;;;;;;;9.73;6.40;;;10.60;99.90;;;;;;5053956;28;20618;-70
2021/05/28 02:48:50;;;;;;;11.85;7.82;;;10.60;99.90;;;;;;5066309;28;20024;-70
2021/05/28 02:51:20;;;;;;;11.15;7.03;;;10.60;99.90;;;;;;5066455;28;20044;-70
2021/05/28 02:53:46;;;;;;;12.18;8.02;;;10.60;99.90;;;;;;5068183;28;20077;-70
2021/05/28 02:56:12;;;;;;;14.30;8.30;;;10.50;99.90;;;;;;5069218;28;20033;-70
2021/05/28 02:58:38;;;;;;;11.48;7.82;;;10.50;99.90;;;;;;5068161;28;20101;-70
2021/05/28 03:01:03;;;;;;;13.82;8.20;;;10.50;99.90;;;;;;5072549;28;20028;-70
2021/05/28 03:03:29;;;;;;;13.23;8.68;;;10.50;99.90;;;;;;5075413;28;20035;-70
2021/05/28 03:05:55;;;;;;;13.98;8.73;;;10.50;99.90;;;;;;5068115;28;20132;-70
2021/05/28 03:08:23;;;;;;;13.65;7.55;;;10.40;99.90;;;;;;5067020;28;20484;-70
2021/05/28 03:10:48;;;;;;;12.60;8.75;;;10.50;99.90;;;;;;5066257;28;20028;-70
2021/05/28 03:13:14;;;;;;;12.68;9.18;;;10.40;99.90;;;;;;5067394;28;20043;-71
2021/05/28 03:15:40;;;;;;;11.23;8.20;;;10.40;99.90;;;;;;5065832;28;20107;-70
2021/05/28 03:18:13;;;;;;;12.60;8.35;;;10.40;99.90;;;;;;5069369;28;20155;-70
2021/05/28 03:20:46;;;;;;;12.48;8.13;;;10.40;99.90;;;;;;5067862;28;20028;-70
2021/05/28 03:23:11;;;;;;;;;;;10.40;99.90;;;;;;5068874;28;20689;-69
2021/05/28 03:25:38;;;;;;;11.50;7.95;;;10.40;99.90;;;;;;5071264;28;19944;-71
2021/05/28 03:28:06;;;;;;;11.98;8.50;;;10.20;99.90;;;;;;5074568;28;20162;-70
2021/05/28 03:30:33;;;;;;;11.00;7.88;;;10.30;99.90;;;;;;5052155;28;20035;-71
2021/05/28 03:33:01;;;;;;;13.55;8.80;;;10.30;99.90;;;;;;5067932;28;20032;-71
2021/05/28 03:35:29;;;;;;;11.70;7.75;;;10.30;99.90;;;;;;5068164;28;20842;-70
2021/05/28 03:37:57;;;;;;;9.73;7.35;;;10.30;99.90;;;;;;5068720;28;20033;-71
2021/05/28 03:40:23;;;;;;;10.50;7.00;;;10.30;99.90;;;;;;5067824;28;20055;-70
2021/05/28 03:42:48;;;;;;;13.57;8.02;;;10.20;99.90;;;;;;5065808;28;20117;-70
2021/05/28 03:45:19;;;;;;;10.18;7.95;;;10.30;99.90;;;;;;5068587;28;20043;-71
2021/05/28 03:47:45;;;;;;;9.90;7.03;;;10.30;99.90;;;;;;5076109;28;20044;-71
2021/05/28 03:50:13;;;;;;;11.63;7.22;;;10.20;99.90;;;;;;5073932;28;20032;-71
2021/05/28 03:52:41;;;;;;;10.90;7.13;;;10.30;99.90;;;;;;5068353;28;20035;-72
2021/05/28 03:55:08;;;;;;;9.95;6.30;;;10.20;99.90;;;;;;5067952;28;20078;-70
2021/05/28 03:57:35;;;;;;;10.45;6.60;;;10.20;99.90;;;;;;5076237;28;20093;-70
2021/05/28 04:00:01;;;;;;;10.98;6.20;;;10.30;99.90;;;;;;5070469;28;20428;-70
2021/05/28 04:02:27;;;;;;;10.10;6.18;;;10.30;99.90;;;;;;5077237;28;20055;-70
2021/05/28 04:04:54;;;;;;;8.40;6.22;;;10.30;99.90;;;;;;5076724;28;20190;-70
2021/05/28 04:07:25;;;;;;;7.88;5.80;;;10.40;99.90;;;;;;5080137;28;20033;-70
2021/05/28 04:09:53;;;;;;;9.48;5.70;;;10.40;99.90;;;;;;5080237;28;20020;-70
2021/05/28 04:12:18;;;;;;;8.32;5.85;;;10.40;99.90;;;;;;5077754;28;20048;-70
2021/05/28 04:14:44;;;;;;;8.45;5.60;;;10.40;99.90;;;;;;5078255;28;20094;-70
2021/05/28 04:17:10;;;;;;;9.50;5.80;;;10.50;99.90;;;;;;5079920;28;20081;-70
2021/05/28 04:19:38;;;;;;;9.80;5.95;;;10.50;99.90;;;;;;5078644;28;20095;-70
2021/05/28 04:22:03;;;;;;;11.18;6.25;;;10.50;99.90;;;;;;5079754;28;20047;-70
2021/05/28 04:24:31;;;;;;;9.10;5.38;;;10.60;99.90;;;;;;5081382;28;20032;-70
2021/05/28 04:27:00;;;;;;;7.65;6.20;;;10.60;99.90;;;;;;5078236;28;20028;-70
2021/05/28 04:29:26;;;;;;;8.63;6.43;;;10.60;99.90;;;;;;5077728;28;20032;-70
2021/05/28 04:31:54;;;;;;;9.10;6.20;;;10.60;99.90;;;;;;5066278;28;20043;-70
2021/05/28 04:34:20;;;;;;;9.15;6.05;;;10.60;99.90;;;;;;5075688;28;20032;-70
2021/05/28 04:36:48;;;;;;;8.25;7.03;;;10.70;99.90;;;;;;5080071;28;20085;-70
2021/05/28 04:39:16;;;;;;;8.55;6.22;;;10.70;99.90;;;;;;5076035;28;20024;-71
2021/05/28 04:41:41;;;;;;;8.32;6.00;;;10.70;99.90;;;;;;5078125;28;20091;-70
2021/05/28 04:44:07;;;;;;;10.25;6.40;;;10.70;99.90;;;;;;5077066;28;20139;-70
2021/05/28 04:46:39;;;;;;;12.43;6.75;;;10.70;99.90;;;;;;5066957;28;20464;-70
2021/05/28 04:49:04;;;;;;;10.23;6.55;;;10.80;99.90;;;;;;5077768;28;20024;-70
2021/05/28 04:51:30;;;;;;;10.43;6.30;;;10.80;99.90;;;;;;5077587;28;20066;-70
2021/05/28 04:53:56;;;;;;;9.40;5.75;;;10.80;99.90;;;;;;5077639;28;20051;-70
2021/05/28 04:56:24;;;;;;;10.68;6.40;;;10.70;99.90;;;;;;5079497;28;20054;-70
2021/05/28 04:58:50;;;;;;;10.90;5.80;;;10.80;99.90;;;;;;5075236;28;20107;-70
2021/05/28 05:01:18;;;;;;;11.07;5.90;;;10.80;99.90;;;;;;5078308;28;20697;-70
2021/05/28 05:03:46;;;;;;;10.73;5.90;;;10.80;99.90;;;;;;5076734;28;20056;-71
2021/05/28 05:06:14;;;;;;;8.00;6.18;;;10.90;99.90;;;;;;5078971;28;20020;-69
2021/05/28 05:08:39;;;;;;;11.32;6.20;;;10.90;99.90;;;;;;5077473;28;20440;-71
2021/05/28 05:11:07;;;;;;;11.30;6.13;;;10.90;99.90;;;;;;5078845;28;20111;-69
2021/05/28 05:13:35;;;;;;;13.25;6.32;;;10.90;99.90;;;;;;5077782;28;20032;-71
2021/05/28 05:16:01;;;;;;;9.95;6.13;;;10.90;99.90;;;;;;5078880;28;20038;-71
2021/05/28 05:18:28;;;;;;;11.07;6.00;;;11.00;99.90;;;;;;5076844;28;20111;-72
2021/05/28 05:20:54;;;;;;;10.10;5.90;;;10.90;99.90;;;;;;5076010;28;20441;-70
2021/05/28 05:23:22;;;;;;;9.32;6.15;;;11.00;99.90;;;;;;5077340;28;20047;-71
2021/05/28 05:25:48;;;;;;;11.23;6.20;;;11.00;99.90;;;;;;5076414;28;20032;-71
2021/05/28 05:28:16;;;;;;;9.10;5.28;;;11.00;99.90;;;;;;5077284;28;20076;-71
2021/05/28 05:30:41;;;;;;;10.73;5.82;;;11.00;99.90;;;;;;5076026;28;20032;-71
2021/05/28 05:33:07;;;;;;;10.15;6.20;;;11.10;99.90;;;;;;5076301;28;20343;-71
2021/05/28 05:35:33;;;;;;;9.38;5.78;;;11.10;99.90;;;;;;5077901;28;20028;-78
2021/05/28 05:38:01;;;;;;;9.07;5.80;;;11.10;99.90;;;;;;5075047;28;20093;-76
2021/05/28 05:40:26;;;;;;;7.90;5.50;;;11.10;99.90;;;;;;5076787;28;20147;-71
2021/05/28 05:42:54;;;;;;;12.18;6.32;;;11.10;99.90;;;;;;5077015;28;20111;-71
2021/05/28 05:45:22;;;;;;;10.40;5.90;;;11.20;99.90;;;;;;5068321;28;20024;-71
2021/05/28 05:47:48;;;;;;;8.18;5.75;;;11.20;99.90;;;;;;5079398;28;20276;-71
2021/05/28 05:50:15;;;;;;;12.10;6.10;;;11.30;99.90;;;;;;5080024;28;20645;-71
2021/05/28 05:52:43;;;;;;;9.60;5.47;;;11.30;99.90;;;;;;5079084;28;20046;-71
2021/05/28 05:55:12;;;;;;;10.43;5.35;;;11.30;99.90;;;;;;5071261;28;20079;-77
2021/05/28 05:57:37;;;;;;;11.15;5.65;;;11.40;99.90;;;;;;5061897;28;20016;-76
2021/05/28 06:00:08;;;;;;;11.88;5.25;;;11.40;99.90;;;;;;5075631;28;20613;-71
2021/05/28 06:02:36;;;;;;;9.85;5.05;;;11.50;99.90;;;;;;5075827;28;20032;-71
2021/05/28 06:05:01;;;;;;;9.13;4.88;;;11.50;99.90;;;;;;5078772;28;20032;-70
2021/05/28 06:07:27;;;;;;;8.63;4.82;;;11.50;99.90;;;;;;5077730;28;20458;-71
2021/05/28 06:09:52;;;;;;;8.80;4.90;;;11.60;99.90;;;;;;5078045;28;20369;-71
2021/05/28 06:12:20;;;;;;;8.13;4.80;;;11.60;99.90;;;;;;5072341;28;20044;-70
2021/05/28 06:14:46;;;;;;;9.70;4.25;;;11.60;99.90;;;;;;5068336;28;20035;-70
2021/05/28 06:17:11;;;;;;;8.15;4.32;;;11.70;99.90;;;;;;5058060;28;20468;-71
2021/05/28 06:19:37;;;;;;;6.85;4.30;;;11.70;99.90;;;;;;5069156;28;20067;-70
2021/05/28 06:22:05;;;;;;;7.78;4.63;;;11.80;99.90;;;;;;5067706;28;20041;-70
2021/05/28 06:24:30;;;;;;;7.50;4.53;;;11.90;99.90;;;;;;5070728;28;20671;-70
2021/05/28 06:26:58;;;;;;;9.15;4.28;;;11.90;99.90;;;;;;5069594;28;20062;-71
2021/05/28 06:29:26;;;;;;;9.80;4.65;;;12.00;99.90;;;;;;5070052;28;20032;-70
2021/05/28 06:31:54;;;;;;;7.70;4.45;;;12.00;99.90;;;;;;5072613;28;20044;-70
2021/05/28 06:34:22;;;;;;;9.95;4.40;;;12.10;99.90;;;;;;5078987;28;20024;-70
2021/05/28 06:36:48;;;;;;;7.97;4.50;;;12.10;99.90;;;;;;5065534;28;20024;-71
2021/05/28 06:39:17;;;;;;;9.68;4.68;;;12.10;99.90;;;;;;5078967;28;20126;-75
2021/05/28 06:41:43;;;;;;;9.07;4.57;;;12.20;99.90;;;;;;5077960;28;20036;-75
2021/05/28 06:44:09;;;;;;;9.10;4.90;;;12.20;99.90;;;;;;5068984;28;20017;-70
2021/05/28 06:46:38;;;;;;;8.40;4.32;;;12.20;99.90;;;;;;5080986;28;20566;-71
2021/05/28 06:49:03;;;;;;;15.25;9.82;;;12.20;99.90;;;;;;5079149;28;20081;-71
2021/05/28 06:51:32;;;;;;;10.05;4.97;;;12.30;99.90;;;;;;5069299;28;20016;-71
2021/05/28 06:53:58;;;;;;;7.78;4.35;;;12.40;99.90;;;;;;5069322;28;20365;-70
2021/05/28 06:56:24;;;;;;;7.78;4.28;;;12.50;99.90;;;;;;5077081;28;20027;-71
2021/05/28 06:58:50;;;;;;;8.95;4.80;;;12.50;99.90;;;;;;5062918;28;20389;-71
2021/05/28 07:01:16;;;;;;;11.60;4.78;;;12.60;99.90;;;;;;5057584;28;20616;-70
2021/05/28 07:03:44;;;;;;;9.23;4.50;;;12.60;99.90;;;;;;5074768;28;20165;-72
2021/05/28 07:06:10;;;;;;;8.38;4.93;;;12.70;99.90;;;;;;5068796;28;20094;-70
2021/05/28 07:08:35;;;;;;;7.63;4.40;;;12.70;99.90;;;;;;5072345;28;20512;-70
2021/05/28 07:11:02;;;;;;;7.63;4.30;;;12.60;99.90;;;;;;5078495;28;20036;-70
2021/05/28 07:13:28;;;;;;;8.77;4.45;;;12.70;99.90;;;;;;5079524;28;20437;-72
2021/05/28 07:15:53;;;;;;;8.20;4.00;;;12.70;99.90;;;;;;5069119;28;20040;-71
2021/05/28 07:18:19;;;;;;;7.47;4.25;;;12.70;99.90;;;;;;5068628;28;21283;-71
2021/05/28 07:20:44;;;;;;;7.90;4.47;;;12.70;99.90;;;;;;5054584;28;20032;-70
2021/05/28 07:23:11;;;;;;;8.45;4.47;;;12.80;99.90;;;;;;5067342;28;20048;-71
2021/05/28 07:25:39;;;;;;;9.60;4.53;;;12.80;99.90;;;;;;5067435;28;20035;-70
2021/05/28 07:28:07;;;;;;;8.55;4.47;;;12.90;99.90;;;;;;5069737;28;20081;-70
2021/05/28 07:30:38;;;;;;;9.77;4.47;;;12.90;99.90;;;;;;5097172;28;20040;-71
2021/05/28 07:33:06;;;;;;;8.25;4.50;;;12.90;99.90;;;;;;5072842;28;20036;-71
2021/05/28 07:35:31;;;;;;;9.70;4.57;;;12.90;99.90;;;;;;5067459;28;20582;-70
2021/05/28 07:37:57;;;;;;;6.90;4.10;;;13.00;99.90;;;;;;5068223;28;20479;-70
2021/05/28 07:40:25;;;;;;;8.30;4.78;;;13.00;99.90;;;;;;5069157;28;20032;-70
2021/05/28 07:42:53;;;;;;;7.72;4.10;;;13.10;99.90;;;;;;5068049;28;20745;-70
2021/05/28 07:45:19;;;;;;;11.05;4.78;;;13.10;99.90;;;;;;5069213;28;20039;-70
2021/05/28 07:47:44;;;;;;;8.07;4.40;;;13.10;99.90;;;;;;5067307;28;20032;-70
2021/05/28 07:50:11;;;;;;;6.85;4.28;;;13.10;99.90;;;;;;5066129;28;20024;-70
2021/05/28 07:52:39;;;;;;;8.05;4.57;;;13.20;99.90;;;;;;5067854;28;20052;-70
2021/05/28 07:55:05;;;;;;;10.68;4.65;;;13.30;99.90;;;;;;5066617;28;20032;-70
2021/05/28 07:57:33;;;;;;;7.97;4.38;;;13.40;99.90;;;;;;5077354;28;20034;-70
2021/05/28 08:00:01;;;;;;;8.35;4.30;;;13.60;99.90;;;;;;5075877;28;20024;-70
2021/05/28 08:02:29;;;;;;;6.63;4.00;;;13.70;99.90;;;;;;5071332;28;20524;-70
2021/05/28 08:04:57;;;;;;;5.47;2.85;;;13.90;99.90;;;;;;5071736;28;20840;-70
2021/05/28 08:07:25;;;;;;;6.15;2.88;;;14.00;99.90;;;;;;5064414;28;20032;-70
2021/05/28 08:09:53;;;;;;;5.80;2.90;;;14.10;99.90;;;;;;5076214;28;20090;-70
2021/05/28 08:12:23;;;;;;;5.65;2.70;;;14.30;99.90;;;;;;5073587;28;20423;-70
2021/05/28 08:14:49;;;;;;;10.40;2.88;;;14.40;99.90;;;;;;5073656;28;20032;-70
2021/05/28 08:17:14;;;;;;;6.53;2.75;;;14.50;99.90;;;;;;5074974;28;20028;-70
2021/05/28 08:19:41;;;;;;;7.75;3.00;;;14.50;99.90;;;;;;5066976;28;20029;-70
2021/05/28 08:22:07;;;;;;;5.95;2.92;;;14.60;99.90;;;;;;5038236;28;20063;-70
2021/05/28 08:24:35;;;;;;;4.68;2.78;;;14.80;99.90;;;;;;5073941;28;20054;-71
2021/05/28 08:27:00;;;;;;;6.78;2.97;;;14.90;99.90;;;;;;5074919;28;21874;-70
2021/05/28 08:29:26;;;;;;;6.50;3.30;;;15.10;99.90;;;;;;5056467;28;20024;-70
2021/05/28 08:31:53;;;;;;;6.30;2.80;;;15.30;99.90;;;;;;5076893;28;20093;-70
2021/05/28 08:34:24;;;;;;;6.38;3.00;;;15.50;99.90;;;;;;5075990;28;20575;-70
2021/05/28 08:36:50;;;;;;;7.18;3.10;;;15.60;99.90;;;;;;5078290;28;20042;-70
2021/05/28 08:39:16;;;;;;;8.25;3.50;;;15.60;99.90;;;;;;5075570;28;20024;-70
2021/05/28 08:41:42;;;;;;;6.90;3.40;;;15.70;99.90;;;;;;5075662;28;20052;-70
2021/05/28 08:44:07;;;;;;;8.00;3.45;;;15.70;99.90;;;;;;5076191;28;20090;-70
2021/05/28 08:46:35;;;;;;;7.10;3.20;;;15.60;99.90;;;;;;5074788;28;20586;-70
2021/05/28 08:49:01;;;;;;;6.45;3.20;;;15.60;99.90;;;;;;5079081;28;20028;-70
2021/05/28 08:51:31;;;;;;;6.85;3.60;;;15.60;99.90;;;;;;5078739;28;20035;-70
2021/05/28 08:53:59;;;;;;;6.53;3.00;;;15.50;99.90;;;;;;5080829;28;20031;-69
2021/05/28 08:56:26;;;;;;;5.90;3.30;;;15.30;99.90;;;;;;5067926;28;20086;-70
2021/05/28 08:58:52;;;;;;;7.15;3.10;;;15.30;99.90;;;;;;5078089;28;20039;-70
2021/05/28 09:01:18;;;;;;;6.18;3.42;;;15.20;99.90;;;;;;5070601;28;20024;-69
2021/05/28 09:04:02;;;;;;;8.23;3.30;;;15.00;99.90;;;;;;5079294;28;20093;-70
2021/05/28 09:06:40;;;;;;;7.28;3.40;;;15.00;99.90;;;;;;5079029;28;20024;-70
2021/05/28 09:09:20;;;;;;;6.72;3.20;;;14.90;99.90;;;;;;5065989;28;20040;-70
2021/05/28 09:12:05;;;;;;;6.30;3.10;;;14.90;99.90;;;;;;5059557;28;20176;-70
2021/05/28 09:14:34;;;;;;;6.22;3.20;;;14.90;99.90;;;;;;5070314;28;20043;-70
2021/05/28 09:17:01;;;;;;;6.57;3.30;;;14.80;99.90;;;;;;5069256;28;20115;-70
2021/05/28 09:19:27;;;;;;;5.20;2.55;;;14.80;99.90;;;;;;5079385;28;20027;-70
2021/05/28 09:22:00;;;;;;;5.63;2.88;;;14.70;99.90;;;;;;5079500;28;20024;-69
2021/05/28 09:24:34;;;;;;;6.18;2.80;;;14.70;99.90;;;;;;5076755;28;20035;-70
2021/05/28 09:27:19;;;;;;;8.43;3.30;;;14.50;99.90;;;;;;5074243;28;20502;-69
2021/05/28 09:30:07;;;;;;;6.60;2.88;;;14.50;99.90;;;;;;5074379;28;20331;-70
2021/05/28 09:32:34;;;;;;;6.40;2.53;;;14.50;99.90;;;;;;5069669;28;20110;-70
2021/05/28 09:35:00;;;;;;;5.93;2.90;;;14.50;99.90;;;;;;5071649;28;20119;-69
2021/05/28 09:37:43;;;;;;;9.05;2.60;;;14.50;99.90;;;;;;5068141;28;20028;-69
2021/05/28 09:40:10;;;;;;;6.30;2.55;;;14.60;99.90;;;;;;5068247;28;20020;-70
2021/05/28 09:42:58;;;;;;;6.18;2.70;;;14.60;99.90;;;;;;5070070;28;20921;-69
2021/05/28 09:45:31;;;;;;;4.47;2.20;;;14.80;99.90;;;;;;5066343;28;20107;-70
2021/05/28 09:48:23;;;;;;;5.53;2.33;;;14.80;99.90;;;;;;5070502;28;20111;-69
2021/05/28 09:50:56;;;;;;;4.47;2.38;;;14.80;99.10;;;;;;5073958;28;20042;-70
2021/05/28 09:53:43;;;;;;;4.85;2.30;;;14.80;99.90;;;;;;5073951;28;20405;-70
2021/05/28 09:56:43;;;;;;;4.78;2.30;;;14.90;99.90;;;;;;5068833;28;20047;-70
2021/05/28 09:59:13;;;;;;;3.53;2.30;;;15.00;99.90;;;;;;5032854;28;20489;-70
2021/05/28 10:01:53;;;;;;;5.07;2.53;;;15.00;99.90;;;;;;5069655;28;22003;-69
2021/05/28 10:04:19;;;;;;;5.25;2.45;;;15.10;99.90;;;;;;5069902;28;20036;-70
2021/05/28 10:06:47;;;;;;;6.00;2.30;;;15.10;99.90;;;;;;5071310;28;20028;-70
2021/05/28 10:09:15;;;;;;;5.03;2.42;;;15.20;99.90;;;;;;5067840;28;20021;-70
2021/05/28 10:11:41;;;;;;;5.18;2.40;;;15.20;99.90;;;;;;5068874;28;20052;-70
2021/05/28 10:14:07;;;;;;;5.78;2.60;;;15.30;99.90;;;;;;5069700;28;20438;-69
2021/05/28 10:16:33;;;;;;;6.72;2.45;;;15.30;99.90;;;;;;5069821;28;20050;-69
2021/05/28 10:19:00;;;;;;;4.68;2.20;;;15.40;99.90;;;;;;5068760;28;20028;-70
2021/05/28 10:21:26;;;;;;;5.68;2.10;;;15.50;99.90;;;;;;5074937;28;20025;-70
2021/05/28 10:23:52;;;;;;;5.85;2.63;;;15.60;99.90;;;;;;5074245;28;20537;-70
2021/05/28 10:26:31;;;;;;;3.88;2.10;;;15.80;99.90;;;;;;5075890;28;20090;-70
2021/05/28 10:28:57;;;;;;;5.03;2.13;;;16.00;99.90;;;;;;5074807;28;20032;-69
2021/05/28 10:31:51;;;;;;;4.18;2.00;;;16.10;99.90;;;;;;5070069;28;20100;-70
2021/05/28 10:34:16;;;;;;;3.63;2.10;;;16.20;99.90;;;;;;5068089;28;20465;-70
2021/05/28 10:36:42;;;;;;;4.63;2.00;;;16.20;99.90;;;;;;5069646;28;20046;-70
2021/05/28 10:39:09;;;;;;;5.30;2.10;;;16.20;99.90;;;;;;5067338;28;20096;-70
2021/05/28 10:41:36;;;;;;;5.57;2.50;;;16.20;99.90;;;;;;5065709;28;20040;-70
2021/05/28 10:44:09;;;;;;;4.80;2.20;;;16.20;99.90;;;;;;5068049;28;20102;-71
2021/05/28 10:46:34;;;;;;;5.30;2.00;;;16.10;99.90;;;;;;5070416;28;20024;-70
2021/05/28 10:49:08;;;;;;;4.85;2.00;;;16.10;99.90;;;;;;5076076;28;20081;-70
2021/05/28 10:51:34;;;;;;;3.50;2.03;;;16.10;99.90;;;;;;5077596;28;20024;-70
2021/05/28 10:53:59;;;;;;;16.10;2.20;;;16.00;99.90;;;;;;5075365;28;20035;-70
2021/05/28 10:56:42;;;;;;;4.40;1.88;;;16.00;99.90;;;;;;5077678;28;20291;-69
2021/05/28 10:59:17;;;;;;;5.22;2.25;;;16.00;99.90;;;;;;5075200;28;20439;-70
2021/05/28 11:02:00;;;;;;;4.85;2.20;;;16.00;99.90;;;;;;5060289;28;20036;-69
2021/05/28 11:04:31;;;;;;;3.00;1.80;;;16.00;99.90;;;;;;5068480;28;20441;-70
2021/05/28 11:09:35;;;;;;;3.50;1.80;;;15.90;99.90;;;;;;5067994;28;20146;-70
2021/05/28 11:12:02;;;;;;;7.38;1.90;;;16.00;99.90;;;;;;5060684;28;21831;-70
2021/05/28 11:14:28;;;;;;;5.22;1.90;;;16.00;99.90;;;;;;5067653;28;20025;-70
2021/05/28 11:16:57;;;;;;;4.05;1.92;;;15.90;99.90;;;;;;5065458;28;20504;-69
2021/05/28 11:19:26;;;;;;;5.88;2.10;;;16.10;99.90;;;;;;5068189;28;20028;-69
2021/05/28 11:21:55;;;;;;;3.38;1.80;;;16.20;99.90;;;;;;5066931;28;20020;-70
2021/05/28 11:24:21;;;;;;;3.22;2.00;;;16.30;93.40;;;;;;5065244;28;20146;-70
2021/05/28 11:26:46;;;;;;;3.75;1.77;;;16.40;97.00;;;;;;5066635;28;20037;-70
2021/05/28 11:29:19;;;;;;;3.65;1.88;;;16.50;99.90;;;;;;5070006;28;20043;-70
2021/05/28 11:31:45;;;;;;;3.92;1.85;;;16.60;94.60;;;;;;5079008;28;20063;-73
2021/05/28 11:34:12;;;;;;;4.88;1.85;;;16.60;96.60;;;;;;5072660;28;20055;-73
2021/05/28 11:36:42;;;;;;;6.20;2.10;;;16.60;93.70;;;;;;5074599;28;20081;-70
2021/05/28 11:39:11;;;;;;;3.85;1.75;;;16.60;95.80;;;;;;5081111;28;20043;-70
2021/05/28 11:41:59;;;;;;;3.30;1.60;;;16.70;97.60;;;;;;5075968;28;20032;-70
2021/05/28 11:44:29;;;;;;;3.40;1.55;;;16.70;96.00;;;;;;5076132;28;20100;-70
2021/05/28 11:46:54;;;;;;;2.55;1.60;;;16.70;96.20;;;;;;5078900;28;20101;-70
2021/05/28 11:49:23;;;;;;;4.57;1.75;;;16.80;96.70;;;;;;5067920;28;20433;-69
2021/05/28 11:52:06;;;;;;;4.60;1.77;;;16.80;95.40;;;;;;5083707;28;20035;-69
2021/05/28 11:54:35;;;;;;;2.83;1.70;;;16.90;99.90;;;;;;5067709;28;20037;-70
2021/05/28 11:57:06;;;;;;;2.83;1.55;;;16.90;98.90;;;;;;5067946;28;20078;-69
2021/05/28 11:59:54;;;;;;;2.63;1.63;;;17.00;99.90;;;;;;5070816;28;20032;-70
2021/05/28 12:02:33;;;;;;;3.97;1.77;;;16.90;89.00;;;;;;5077201;28;20114;-70
2021/05/28 12:05:01;;;;;;;3.78;1.80;;;16.90;99.90;;;;;;5069912;28;20031;-70
2021/05/28 12:07:28;;;;;;;4.65;2.00;;;16.90;96.90;;;;;;5066784;28;20127;-69
2021/05/28 12:10:04;;;;;;;6.10;1.77;;;16.80;93.20;;;;;;5068978;28;20060;-69
2021/05/28 12:12:51;;;;;;;4.88;2.00;;;16.80;91.60;;;;;;5078366;28;20026;-69
2021/05/28 12:15:19;;;;;;;3.65;1.90;;;16.80;91.90;;;;;;5077386;28;20085;-70
2021/05/28 12:17:45;;;;;;;4.72;2.00;;;16.70;97.00;;;;;;5077876;28;20066;-69
2021/05/28 12:20:22;;;;;;;3.63;1.83;;;16.70;95.90;;;;;;5078809;28;20032;-69
2021/05/28 12:22:59;;;;;;;4.13;2.20;;;16.60;99.00;;;;;;5081033;28;20089;-69
2021/05/28 12:25:25;;;;;;;3.40;1.90;;;16.60;99.90;;;;;;5081345;28;20033;-69
2021/05/28 12:27:56;;;;;;;4.80;1.75;;;16.50;95.90;;;;;;5081673;28;20029;-70
2021/05/28 12:30:25;;;;;;;3.85;1.98;;;16.50;93.80;;;;;;5081065;28;20521;-69
2021/05/28 12:32:50;;;;;;;3.75;1.88;;;16.40;92.50;;;;;;5076076;28;20032;-69
2021/05/28 12:35:16;;;;;;;3.13;1.83;;;16.40;96.00;;;;;;5072081;28;20028;-69
2021/05/28 12:38:11;;;;;;;3.80;1.80;;;16.40;97.70;;;;;;5073804;28;20028;-69
2021/05/28 12:40:43;;;;;;;4.22;2.00;;;16.50;96.80;;;;;;5070824;28;20081;-69
2021/05/28 12:43:11;;;;;;;;;;;16.70;96.90;;;;;;5070973;28;20024;-69
2021/05/28 12:45:41;;;;;;;4.57;1.85;;;16.90;89.80;;;;;;5068737;28;20023;-69
2021/05/28 12:48:11;;;;;;;3.63;2.00;;;17.20;98.20;;;;;;5070944;28;20186;-69
2021/05/28 12:50:38;;;;;;;4.07;1.80;;;17.50;96.60;;;;;;5069206;28;20024;-69
2021/05/28 12:53:12;;;;;;;5.20;1.80;;;17.80;91.40;;;;;;5070810;28;20028;-69